Flight Track Log - Related Links

Times and Time Zones

All times are in EDT time to prevent confusion due to time zone crossing. See the SWA1533 flight status page for this flight to view local times or setup timezone preferences in your user account.

Time Position Orientation Groundspeed Altitude Reporting Facility
EDT Latitude Longitude Course Direction KTS MPH feet Rate Location/Type
Fri 09:37:44 PM 39.1500 -76.6500 237° Southwest 166 191 1,000  Level Potomac TRACON
Fri 09:38:50 PM 39.1333 -76.6833 237° Southwest 216 249 2,800 1,850 Climbing Potomac TRACON
Fri 09:39:44 PM 39.1500 -76.7333 293° West 232 267 4,700 2,474 Climbing Potomac TRACON
Fri 09:40:44 PM 39.1833 -76.8167 297° West 278 320 7,500 3,500 Climbing Potomac TRACON
Fri 09:41:44 PM 39.2167 -76.9000 297° West 266 306 11,700 3,000 Climbing Potomac TRACON
Fri 09:44:00 PM 39.2894 -77.1119 294° West 284 327 17,300 2,357 Climbing Washington Center
Fri 09:45:00 PM 39.3297 -77.2256 295° West 308 354 19,400 1,950 Climbing Washington Center
Fri 09:46:00 PM 39.3717 -77.3500 294° West 340 391 21,200 2,150 Climbing Washington Center
Fri 09:47:00 PM 39.4156 -77.4772 294° West 361 415 23,700 2,600 Climbing Washington Center
Fri 09:48:00 PM 39.4633 -77.6103 295° West 383 441 26,400 2,196 Climbing Washington Center
Fri 09:49:33 PM 39.5181 -77.7953 291° West 371 427 29,300 1,843 Climbing Cleveland Center
Fri 09:50:33 PM 39.5567 -77.9228 291° West 376 433 31,100 1,750 Climbing Cleveland Center
Fri 09:51:33 PM 39.5928 -78.0481 291° West 376 433 32,800 1,750 Climbing Cleveland Center
Fri 09:52:33 PM 39.6311 -78.1733 292° West 376 433 34,600 1,350 Climbing Cleveland Center
Fri 09:53:33 PM 39.6669 -78.2961 291° West 370 426 35,500 900 Climbing Cleveland Center
Fri 09:54:33 PM 39.7047 -78.4192 292° West 370 426 36,400 1,100 Climbing Cleveland Center
Fri 09:55:33 PM 39.7403 -78.5447 290° West 370 426 37,700 800 Climbing Cleveland Center
Fri 09:56:33 PM 39.7781 -78.6678 292° West 365 420 38,000 150 Climbing Cleveland Center
Fri 09:57:33 PM 39.8092 -78.7914 288° West 365 420 38,000  Level Cleveland Center
Fri 09:58:33 PM 39.8486 -78.9147 293° West 365 420 38,000  Level Cleveland Center
Fri 09:59:33 PM 39.9150 -79.0456 304° West 378 435 38,000  Level Cleveland Center
Fri 10:00:33 PM 39.9708 -79.1636 302° West 384 442 38,000  Level Cleveland Center
Fri 10:01:33 PM 40.0306 -79.2817 303° West 389 448 38,000  Level Cleveland Center
Fri 10:02:33 PM 40.0861 -79.4000 302° West 389 448 38,000  Level Cleveland Center
Fri 10:03:33 PM 40.1456 -79.5211 303° West 389 448 38,000  Level Cleveland Center
Fri 10:04:33 PM 40.2008 -79.6372 302° West 384 442 38,000  Level Cleveland Center
Fri 10:05:33 PM 40.2603 -79.7614 302° West 384 442 38,000  Level Cleveland Center
Fri 10:06:33 PM 40.3153 -79.8806 301° West 384 442 38,000  Level Cleveland Center
Fri 10:07:33 PM 40.3722 -80.0025 302° West 384 442 38,000  Level Cleveland Center
Fri 10:08:33 PM 40.4206 -80.1086 301° West 384 442 38,000  Level Cleveland Center
Fri 10:09:33 PM 40.4772 -80.2311 301° West 389 448 38,000  Level Cleveland Center
Fri 10:10:33 PM 40.5358 -80.3508 303° West 389 448 38,000  Level Cleveland Center
Fri 10:11:33 PM 40.5925 -80.4656 303° West 383 441 38,000  Level Cleveland Center
Fri 10:12:33 PM 40.6531 -80.6022 300° West 383 441 38,000  Level Cleveland Center
Fri 10:13:33 PM 40.7050 -80.7092 303° West 388 447 38,000  Level Cleveland Center
Fri 10:14:33 PM 40.7611 -80.8297 302° West 388 447 38,000  Level Cleveland Center
Fri 10:15:33 PM 40.8169 -80.9508 301° West 383 441 38,000  Level Cleveland Center
Fri 10:16:33 PM 40.8708 -81.0800 299° West 383 441 38,000  Level Cleveland Center
Fri 10:17:33 PM 40.9286 -81.2014 302° West 393 452 38,000  Level Cleveland Center
Fri 10:18:33 PM 40.9842 -81.3258 301° West 393 452 38,000  Level Cleveland Center
Fri 10:19:33 PM 41.0456 -81.4669 300° West 399 459 38,000  Level Cleveland Center
Fri 10:20:33 PM 41.1028 -81.5917 301° West 399 459 38,000  Level Cleveland Center
Fri 10:21:33 PM 41.1581 -81.7056 303° West 404 465 38,000  Level Cleveland Center
Fri 10:22:33 PM 41.2131 -81.8364 299° West 404 465 38,000  Level Cleveland Center
Fri 10:23:33 PM 41.2719 -81.9644 301° West 409 471 38,000  Level Cleveland Center
Fri 10:24:33 PM 41.3308 -82.0958 301° West 409 471 38,000  Level Cleveland Center
Fri 10:25:33 PM 41.3917 -82.2272 302° West 415 478 38,000  Level Cleveland Center
Fri 10:26:33 PM 41.4606 -82.3536 306° West 421 484 38,000  Level Cleveland Center
Fri 10:27:33 PM 41.5272 -82.4803 305° West 421 484 38,000  Level Cleveland Center
Fri 10:28:33 PM 41.6019 -82.6186 306° West 421 484 38,000  Level Cleveland Center
Fri 10:29:33 PM 41.6686 -82.7403 306° West 421 484 38,000  Level Cleveland Center
Fri 10:30:33 PM 41.7350 -82.8678 305° West 421 484 38,000  Level Cleveland Center
Fri 10:31:33 PM 41.8011 -82.9925 305° West 421 484 38,000  Level Cleveland Center
Fri 10:32:33 PM 41.8672 -83.1206 305° West 421 484 38,000  Level Cleveland Center
Fri 10:33:33 PM 41.9353 -83.2489 306° West 421 484 38,000  Level Cleveland Center
Fri 10:34:33 PM 42.0011 -83.3747 305° West 421 484 38,000  Level Cleveland Center
Fri 10:35:33 PM 42.0539 -83.5111 298° West 416 479 38,000  Level Cleveland Center
Fri 10:36:33 PM 42.0625 -83.6569 275° West 401 461 38,000  Level Cleveland Center
Fri 10:37:33 PM 42.0483 -83.8017 263° West 387 445 38,000  Level Cleveland Center
Fri 10:39:25 PM 42.0658 -84.0572 275° West 401 461 38,000  Level Chicago Center
Fri 10:40:26 PM 42.0767 -84.2058 276° West 400 460 38,000  Level Chicago Center
Fri 10:41:28 PM 42.0894 -84.3542 277° West 398 458 38,000  Level Chicago Center
Fri 10:42:29 PM 42.1014 -84.5314 275° West 398 458 38,000  Level Chicago Center
Fri 10:43:30 PM 42.1122 -84.6797 276° West 399 459 38,000  Level Chicago Center
Fri 10:44:31 PM 42.1233 -84.8253 276° West 395 455 38,000  Level Chicago Center
Fri 10:45:33 PM 42.1344 -84.9717 276° West 394 453 38,000  Level Chicago Center
Fri 10:46:34 PM 42.1447 -85.1194 275° West 394 453 38,000  Level Chicago Center
Fri 10:47:35 PM 42.1561 -85.2675 276° West 397 457 38,000  Level Chicago Center
Fri 10:48:36 PM 42.1661 -85.4156 275° West 398 458 38,000  Level Chicago Center
Fri 10:49:37 PM 42.1767 -85.5653 275° West 402 463 38,000  Level Chicago Center
Fri 10:50:38 PM 42.1864 -85.7169 275° West 404 465 38,000  Level Chicago Center
Fri 10:51:40 PM 42.1956 -85.8683 275° West 406 467 38,000  Level Chicago Center
Fri 10:52:41 PM 42.2056 -86.0342 275° West 409 471 38,000  Level Chicago Center
Fri 10:53:42 PM 42.2147 -86.1872 275° West 411 473 38,000  Level Chicago Center
Fri 10:54:43 PM 42.2239 -86.3403 275° West 413 475 38,000  Level Chicago Center
Fri 10:55:44 PM 42.2331 -86.4944 275° West 414 476 38,000  Level Chicago Center
Fri 10:56:45 PM 42.2422 -86.6478 275° West 413 475 38,000  Level Chicago Center
Fri 10:57:46 PM 42.2525 -86.8072 275° West 415 478 38,000  Level Chicago Center
Fri 10:58:47 PM 42.2617 -86.9897 274° West 411 473 38,000  Level Chicago Center
Fri 10:59:49 PM 42.2689 -87.1394 274° West 405 466 38,000  Level Chicago Center
Fri 11:00:50 PM 42.2767 -87.2917 274° West 409 471 38,000  Level Chicago Center
Fri 11:01:51 PM 42.2844 -87.4444 274° West 411 473 38,000  Level Chicago Center
Fri 11:02:52 PM 42.2919 -87.5972 274° West 412 474 38,000  Level Chicago Center
Fri 11:03:53 PM 42.2992 -87.7492 274° West 410 472 38,000  Level Chicago Center
Fri 11:04:54 PM 42.3064 -87.9022 274° West 413 475 38,000  Level Chicago Center
Fri 11:05:55 PM 42.3136 -88.0542 274° West 411 473 38,000  Level Chicago Center
Fri 11:06:56 PM 42.3214 -88.2358 273° West 408 470 38,000  Level Chicago Center
Fri 11:07:57 PM 42.3278 -88.3894 273° West 410 472 38,000  Level Chicago Center
Fri 11:08:58 PM 42.3333 -88.5350 273° West 420 483 38,000  Level Chicago Center
Fri 11:09:59 PM 42.3400 -88.6900 273° West 414 476 38,000  Level Chicago Center
Fri 11:11:00 PM 42.3461 -88.8478 273° West 418 481 38,000  Level Chicago Center
Fri 11:12:01 PM 42.3533 -89.0319 273° West 420 483 38,000  Level Chicago Center
Fri 11:13:02 PM 42.3586 -89.1883 273° West 419 482 38,000  Level Chicago Center
Fri 11:14:03 PM 42.3642 -89.3469 273° West 421 484 38,000  Level Chicago Center
Fri 11:15:04 PM 42.3694 -89.5036 273° West 417 480 38,000  Level Chicago Center
Fri 11:16:05 PM 42.3733 -89.6619 272° West 419 482 38,000  Level Chicago Center
Fri 11:17:06 PM 42.3794 -89.8197 273° West 420 483 38,000  Level Chicago Center
Fri 11:18:07 PM 42.3822 -89.9617 272° West 415 478 38,000  Level Chicago Center
Fri 11:19:08 PM 42.3875 -90.1161 273° West 413 475 38,000  Level Chicago Center
Fri 11:20:09 PM 42.3914 -90.2689 272° West 412 474 38,000  Level Chicago Center
Fri 11:21:10 PM 42.3942 -90.4228 271° West 410 472 38,000  Level Chicago Center
Fri 11:22:11 PM 42.4006 -90.6092 273° West 414 476 38,000  Level Chicago Center
Fri 11:23:12 PM 42.3986 -90.7617 269° West 413 475 38,000  Level Chicago Center
Fri 11:24:13 PM 42.3828 -90.9133 262° West 409 471 38,000  Level Chicago Center
Fri 11:25:14 PM 42.3672 -91.0667 262° West 411 473 38,000  Level Chicago Center
Fri 11:26:15 PM 42.3503 -91.2189 261° West 411 473 38,000  Level Chicago Center
Fri 11:27:16 PM 42.3350 -91.3739 262° West 413 475 38,000  Level Chicago Center
Fri 11:28:17 PM 42.3181 -91.5256 261° West 412 474 38,000  Level Chicago Center
Fri 11:29:18 PM 42.3019 -91.6761 262° West 408 470 38,000  Level Chicago Center
Fri 11:30:19 PM 42.2844 -91.8244 261° West 403 464 38,000  Level Chicago Center
Fri 11:31:19 PM 42.2692 -91.9739 262° West 402 463 38,000  Level Chicago Center
Fri 11:32:20 PM 42.2517 -92.1225 261° West 403 464 38,000  Level Chicago Center
Fri 11:32:39 PM 42.2461 -92.1833 263° West 399 459 38,000  Level Minneapolis Center
Fri 11:33:40 PM 42.2289 -92.3297 261° West 398 458 38,000  Level Minneapolis Center
Fri 11:34:41 PM 42.2119 -92.4758 261° West 396 456 38,000  Level Minneapolis Center
Fri 11:35:42 PM 42.1956 -92.6211 261° West 394 453 38,000  Level Minneapolis Center
Fri 11:36:43 PM 42.1786 -92.7650 261° West 393 452 38,000  Level Minneapolis Center
Fri 11:37:44 PM 42.1617 -92.9081 261° West 390 449 38,000  Level Minneapolis Center
Fri 11:38:45 PM 42.1444 -93.0522 261° West 392 451 38,000  Level Minneapolis Center
Fri 11:39:46 PM 42.1225 -93.2250 260° West 392 451 38,000  Level Minneapolis Center
Fri 11:40:47 PM 42.1053 -93.3694 261° West 394 453 38,000  Level Minneapolis Center
Fri 11:41:48 PM 42.0883 -93.5156 261° West 397 457 38,000  Level Minneapolis Center
Fri 11:42:49 PM 42.0689 -93.6614 260° West 399 459 38,000  Level Minneapolis Center
Fri 11:44:02 PM 42.0511 -93.8064 261° West 397 457 38,000  Level Minneapolis Center
Fri 11:45:03 PM 42.0275 -93.9892 260° West 396 456 38,000  Level Minneapolis Center
Fri 11:46:04 PM 42.0089 -94.1347 260° West 397 457 38,000  Level Minneapolis Center
Fri 11:47:05 PM 41.9908 -94.2814 261° West 397 457 38,000  Level Minneapolis Center
Fri 11:48:06 PM 41.9708 -94.4281 260° West 400 460 38,000  Level Minneapolis Center
Fri 11:49:07 PM 41.9514 -94.5753 260° West 402 463 38,000  Level Minneapolis Center
Fri 11:50:08 PM 41.9308 -94.7250 260° West 407 468 38,000  Level Minneapolis Center
Fri 11:51:09 PM 41.9097 -94.8744 259° West 408 470 38,000  Level Minneapolis Center
Fri 11:52:10 PM 41.8889 -95.0242 259° West 407 468 38,000  Level Minneapolis Center
Fri 11:53:11 PM 41.8692 -95.1758 260° West 413 475 38,000  Level Minneapolis Center
Fri 11:54:11 PM 41.8431 -95.3569 259° West 413 475 38,000  Level Minneapolis Center
Fri 11:55:12 PM 41.8219 -95.5075 259° West 414 476 38,000  Level Minneapolis Center
Fri 11:56:13 PM 41.8000 -95.6586 259° West 415 478 38,000  Level Minneapolis Center
Fri 11:57:14 PM 41.7781 -95.8086 259° West 414 476 38,000  Level Minneapolis Center
Fri 11:58:15 PM 41.7561 -95.9581 259° West 412 474 38,000  Level Minneapolis Center
Fri 11:59:15 PM 41.7336 -96.1092 259° West 418 481 38,000  Level Minneapolis Center
Sat 12:00:16 AM 41.7114 -96.2592 259° West 415 478 38,000  Level Minneapolis Center
Sat 12:01:17 AM 41.6878 -96.4103 258° West 418 481 38,000  Level Minneapolis Center
Sat 12:02:18 AM 41.6653 -96.5600 259° West 415 478 38,000  Level Minneapolis Center
Sat 12:03:19 AM 41.6431 -96.7097 259° West 413 475 38,000  Level Minneapolis Center
Sat 12:04:19 AM 41.6183 -96.8589 258° West 413 475 38,000  Level Minneapolis Center
Sat 12:05:20 AM 41.5911 -97.0397 259° West 415 478 38,000  Level Minneapolis Center
Sat 12:06:21 AM 41.5664 -97.1897 258° West 415 478 38,000  Level Minneapolis Center
Sat 12:07:22 AM 41.5433 -97.3389 258° West 413 475 38,000  Level Minneapolis Center
Sat 12:08:22 AM 41.5197 -97.4847 258° West 406 467 38,000  Level Minneapolis Center
Sat 12:09:23 AM 41.4950 -97.6331 258° West 407 468 38,000  Level Minneapolis Center
Sat 12:10:24 AM 41.4711 -97.7800 258° West 407 468 38,000  Level Minneapolis Center
Sat 12:11:24 AM 41.4469 -97.9261 258° West 405 466 38,000  Level Minneapolis Center
Sat 12:12:25 AM 41.4233 -98.0703 258° West 401 461 38,000  Level Minneapolis Center
Sat 12:13:26 AM 41.3997 -98.2069 257° West 399 459 38,000  Level Minneapolis Center
Sat 12:14:27 AM 41.3736 -98.3497 256° West 399 459 38,000  Level Minneapolis Center
Sat 12:15:27 AM 41.3106 -98.4825 238° Southwest 406 467 38,000  Level Minneapolis Center
Sat 12:16:28 AM 41.2478 -98.6067 236° Southwest 407 468 38,000  Level Minneapolis Center
Sat 12:17:28 AM 41.1856 -98.7300 236° Southwest 405 466 38,000  Level Minneapolis Center
Sat 12:18:29 AM 41.1228 -98.8514 236° Southwest 401 461 38,000  Level Minneapolis Center
Sat 12:19:30 AM 41.0611 -98.9703 236° Southwest 396 456 38,000  Level Minneapolis Center
Sat 12:20:30 AM 41.0000 -99.0903 236° Southwest 394 453 38,000  Level Minneapolis Center
Sat 12:21:31 AM 40.9350 -99.2161 236° Southwest 391 450 38,000  Level Minneapolis Center
Sat 12:21:49 AM 40.9103 -99.2650 236° Southwest 393 452 38,000 380 Level Denver Center
Sat 12:22:50 AM 40.8478 -99.3839 235° Southwest 394 453 38,500 492 Climbing Denver Center
Sat 12:23:51 AM 40.7842 -99.5058 235° Southwest 402 463 39,000 492 Climbing Denver Center
Sat 12:24:52 AM 40.7169 -99.6300 234° Southwest 415 478 39,500 492 Climbing Denver Center
Sat 12:25:53 AM 40.6511 -99.7578 236° Southwest 420 483 40,000 224 Climbing Denver Center
Sat 12:27:06 AM 40.5661 -99.9200 235° Southwest 425 489 40,000  Level Denver Center
Sat 12:28:07 AM 40.5011 -100.0397 234° Southwest 420 483 40,000  Level Denver Center
Sat 12:29:08 AM 40.4369 -100.1603 235° Southwest 418 481 40,000  Level Denver Center
Sat 12:30:09 AM 40.3636 -100.2989 235° Southwest 413 475 40,000  Level Denver Center
Sat 12:31:10 AM 40.3000 -100.4167 235° Southwest 411 473 40,000  Level Denver Center
Sat 12:32:11 AM 40.2356 -100.5364 235° Southwest 416 479 40,000  Level Denver Center
Sat 12:33:12 AM 40.1672 -100.6769 238° Southwest 408 470 40,000  Level Denver Center
Sat 12:34:13 AM 40.1136 -100.7992 240° Southwest 405 466 40,000  Level Denver Center
Sat 12:35:14 AM 40.0597 -100.9203 240° Southwest 403 464 40,000  Level Denver Center
Sat 12:36:15 AM 39.9967 -101.0628 240° Southwest 404 465 40,000  Level Denver Center
Sat 12:37:16 AM 39.9519 -101.1642 240° Southwest 403 464 40,000  Level Denver Center
Sat 12:38:17 AM 39.8886 -101.3064 240° Southwest 405 466 40,000  Level Denver Center
Sat 12:39:18 AM 39.8256 -101.4494 240° Southwest 406 467 40,000  Level Denver Center
Sat 12:40:19 AM 39.7711 -101.5708 240° Southwest 407 468 40,000  Level Denver Center
Sat 12:41:19 AM 39.7172 -101.6911 240° Southwest 402 463 40,000  Level Denver Center
Sat 12:42:20 AM 39.6531 -101.8319 239° Southwest 406 467 40,000  Level Denver Center
Sat 12:43:21 AM 39.5992 -101.9517 240° Southwest 404 465 40,000  Level Denver Center
Sat 12:44:22 AM 39.5456 -102.0717 240° Southwest 402 463 40,000  Level Denver Center
Sat 12:45:23 AM 39.4814 -102.2086 239° Southwest 399 459 40,000  Level Denver Center
Sat 12:46:24 AM 39.4269 -102.3264 239° Southwest 399 459 40,000  Level Denver Center
Sat 12:47:24 AM 39.3694 -102.4508 239° Southwest 389 448 40,000  Level Denver Center
Sat 12:48:25 AM 39.3122 -102.5706 238° Southwest 395 455 40,000  Level Denver Center
Sat 12:49:26 AM 39.2592 -102.6861 239° Southwest 395 455 40,000  Level Denver Center
Sat 12:50:27 AM 39.1994 -102.8156 239° Southwest 384 442 40,000  Level Denver Center
Sat 12:51:27 AM 39.1403 -102.9353 238° Southwest 392 451 40,000  Level Denver Center
Sat 12:52:28 AM 39.0736 -103.0497 233° Southwest 395 455 40,000  Level Denver Center
Sat 12:53:29 AM 39.0072 -103.1656 234° Southwest 397 457 40,000  Level Denver Center
Sat 12:54:29 AM 38.9411 -103.2794 233° Southwest 395 455 40,000  Level Denver Center
Sat 12:55:30 AM 38.8733 -103.3950 233° Southwest 399 459 40,000  Level Denver Center
Sat 12:56:31 AM 38.8058 -103.5114 233° Southwest 395 455 40,000  Level Denver Center
Sat 12:57:31 AM 38.7419 -103.6169 232° Southwest 391 450 40,000  Level Denver Center
Sat 12:58:32 AM 38.6792 -103.7247 233° Southwest 394 453 40,000  Level Denver Center
Sat 12:59:33 AM 38.6053 -103.8514 233° Southwest 397 457 40,000  Level Denver Center
Sat 01:00:33 AM 38.5403 -103.9606 233° Southwest 402 463 40,000  Level Denver Center
Sat 01:01:34 AM 38.4758 -104.0681 233° Southwest 398 458 40,000  Level Denver Center
Sat 01:02:35 AM 38.4008 -104.1944 233° Southwest 403 464 40,000  Level Denver Center
Sat 01:03:35 AM 38.3322 -104.3089 233° Southwest 403 464 40,000  Level Denver Center
Sat 01:04:36 AM 38.2708 -104.4111 233° Southwest 401 461 40,000  Level Denver Center
Sat 01:05:37 AM 38.1942 -104.5367 232° Southwest 403 464 40,000  Level Denver Center
Sat 01:06:37 AM 38.1306 -104.6436 233° Southwest 400 460 40,000  Level Denver Center
Sat 01:07:38 AM 38.0644 -104.7519 232° Southwest 405 466 40,000  Level Denver Center
Sat 01:08:38 AM 37.9872 -104.8769 232° Southwest 404 465 40,000  Level Denver Center
Sat 01:09:39 AM 37.9228 -104.9850 233° Southwest 404 465 40,000  Level Denver Center
Sat 01:10:40 AM 37.8561 -105.0919 232° Southwest 405 466 40,000  Level Denver Center
Sat 01:11:40 AM 37.7792 -105.2167 232° Southwest 403 464 40,000  Level Denver Center
Sat 01:12:41 AM 37.7139 -105.3236 232° Southwest 402 463 40,000  Level Denver Center
Sat 01:13:41 AM 37.6486 -105.4289 232° Southwest 400 460 40,000  Level Denver Center
Sat 01:14:42 AM 37.5692 -105.5519 231° Southwest 406 467 40,000  Level Denver Center
Sat 01:15:42 AM 37.5078 -105.6533 233° Southwest 402 463 40,000  Level Denver Center
Sat 01:16:43 AM 37.4306 -105.7764 232° Southwest 404 465 40,000  Level Denver Center
Sat 01:17:43 AM 37.3631 -105.8819 231° Southwest 404 465 40,000  Level Denver Center
Sat 01:18:44 AM 37.2956 -105.9894 232° Southwest 409 471 40,000  Level Denver Center
Sat 01:19:44 AM 37.2283 -106.0972 232° Southwest 411 473 40,000  Level Denver Center
Sat 01:20:45 AM 37.1472 -106.2225 231° Southwest 414 476 40,000  Level Denver Center
Sat 01:21:45 AM 37.0783 -106.3322 232° Southwest 419 482 40,000  Level Denver Center
Sat 01:22:46 AM 37.0081 -106.4414 231° Southwest 421 484 40,000  Level Denver Center
Sat 01:23:46 AM 36.9283 -106.5683 232° Southwest 416 479 40,000  Level Denver Center
Sat 01:24:46 AM 36.8578 -106.6753 231° Southwest 416 479 40,000  Level Denver Center
Sat 01:25:47 AM 36.7886 -106.7842 232° Southwest 419 482 40,000  Level Denver Center
Sat 01:26:47 AM 36.7072 -106.9097 231° Southwest 419 482 40,000  Level Denver Center
Sat 01:27:48 AM 36.6375 -107.0183 231° Southwest 419 482 40,000  Level Denver Center
Sat 01:28:48 AM 36.5661 -107.1269 231° Southwest 422 486 40,000  Level Denver Center
Sat 01:29:49 AM 36.4942 -107.2353 230° Southwest 423 487 40,000  Level Denver Center
Sat 01:30:49 AM 36.4114 -107.3628 231° Southwest 424 488 40,000  Level Denver Center
Sat 01:31:49 AM 36.3383 -107.4731 231° Southwest 429 494 40,000  Level Denver Center
Sat 01:32:08 AM 36.3136 -107.5106 231° Southwest 430 495 40,000  Level Albuquerque Center
Sat 01:33:09 AM 36.2428 -107.6197 231° Southwest 428 493 40,000  Level Albuquerque Center
Sat 01:34:09 AM 36.1572 -107.7472 230° Southwest 428 493 40,000  Level Albuquerque Center
Sat 01:35:10 AM 36.0853 -107.8547 230° Southwest 426 490 40,000  Level Albuquerque Center
Sat 01:36:11 AM 36.0147 -107.9664 232° Southwest 428 493 40,000  Level Albuquerque Center
Sat 01:37:11 AM 35.9369 -108.1022 235° Southwest 431 496 40,000  Level Albuquerque Center
Sat 01:38:12 AM 35.8664 -108.2164 233° Southwest 433 498 40,000  Level Albuquerque Center
Sat 01:39:12 AM 35.7944 -108.3289 232° Southwest 434 499 40,000  Level Albuquerque Center
Sat 01:40:13 AM 35.7231 -108.4436 233° Southwest 436 502 40,000  Level Albuquerque Center
Sat 01:41:14 AM 35.6389 -108.5761 232° Southwest 437 503 40,000  Level Albuquerque Center
Sat 01:42:14 AM 35.5658 -108.6906 232° Southwest 439 505 40,000  Level Albuquerque Center
Sat 01:43:15 AM 35.4936 -108.8044 232° Southwest 440 506 40,000  Level Albuquerque Center
Sat 01:44:15 AM 35.4103 -108.9364 232° Southwest 438 504 40,000  Level Albuquerque Center
Sat 01:45:16 AM 35.3375 -109.0497 232° Southwest 439 505 40,000  Level Albuquerque Center
Sat 01:46:16 AM 35.2642 -109.1633 232° Southwest 440 506 40,000  Level Albuquerque Center
Sat 01:47:17 AM 35.1917 -109.2756 232° Southwest 439 505 40,000  Level Albuquerque Center
Sat 01:48:18 AM 35.1072 -109.4075 232° Southwest 441 507 40,000  Level Albuquerque Center
Sat 01:49:18 AM 35.0314 -109.5153 229° Southwest 438 504 40,000  Level Albuquerque Center
Sat 01:50:19 AM 34.9592 -109.6300 232° Southwest 441 507 40,000  Level Albuquerque Center
Sat 01:51:19 AM 34.8728 -109.7608 231° Southwest 443 510 40,000  Level Albuquerque Center
Sat 01:52:20 AM 34.7975 -109.8733 231° Southwest 446 513 40,000  Level Albuquerque Center
Sat 01:53:21 AM 34.7231 -109.9894 232° Southwest 451 519 40,000  Level Albuquerque Center
Sat 01:54:21 AM 34.6417 -110.1325 235° Southwest 461 531 40,000 -149 Level Albuquerque Center
Sat 01:55:22 AM 34.5747 -110.2539 236° Southwest 454 522 39,700 -1,388 Descending Albuquerque Center
Sat 01:56:22 AM 34.5003 -110.3633 230° Southwest 444 511 37,200 -2,876 Descending Albuquerque Center
Sat 01:57:23 AM 34.4325 -110.4886 237° Southwest 459 528 33,900 -3,471 Descending Albuquerque Center
Sat 01:58:23 AM 34.3589 -110.6172 235° Southwest 465 535 30,200 -3,521 Descending Albuquerque Center
Sat 01:59:24 AM 34.2792 -110.7422 232° Southwest 468 539 26,800 -3,197 Descending Albuquerque Center
Sat 02:00:25 AM 34.2022 -110.8672 233° Southwest 467 537 23,700 -2,975 Descending Albuquerque Center
Sat 02:01:25 AM 34.1322 -110.9869 235° Southwest 449 517 20,800 -2,876 Descending Albuquerque Center
Sat 02:02:26 AM 34.0642 -111.1003 234° Southwest 426 490 17,900 -2,826 Descending Albuquerque Center
Sat 02:03:26 AM 33.9989 -111.2089 234° Southwest 409 471 15,100 -2,430 Descending Albuquerque Center
Sat 02:04:27 AM 33.9367 -111.3114 234° Southwest 383 441 13,000 -1,388 Descending Albuquerque Center
Sat 02:05:27 AM 33.8817 -111.4019 234° Southwest 334 384 12,300 -992 Descending Albuquerque Center
Sat 02:06:28 AM 33.8133 -111.4636 217° Southwest 306 352 11,000 -1,230 Descending Albuquerque Center
Sat 02:07:29 AM 33.7469 -111.5219 216° Southwest 295 339 9,800 -1,438 Descending Albuquerque Center
Sat 02:08:29 AM 33.6703 -111.5933 218° Southwest 290 334 8,100 -1,400 Descending Albuquerque Center
Sat 02:09:29 AM 33.6081 -111.6508 218° Southwest 282 325 7,000 -1,240 Descending Albuquerque Center
Sat 02:10:30 AM 33.5447 -111.7081 217° Southwest 284 327 5,600 -1,339 Descending Albuquerque Center
Sat 02:11:30 AM 33.4844 -111.7642 218° Southwest 276 318 4,300 -793 Descending Albuquerque Center
Sat 02:12:31 AM 33.4317 -111.8156 219° Southwest 244 281 4,000 -645 Descending Albuquerque Center
Sat 02:13:31 AM 33.4314 -111.8811 270° West 195 224 3,000 -893 Descending Albuquerque Center
Sat 02:14:32 AM 33.4317 -111.9331 270° West 160 184 2,200 -744 Descending Albuquerque Center
Sat 02:15:32 AM 33.4311 -111.9772 269° West 135 155 1,500 -545 Descending Albuquerque Center
Sat 02:16:33 AM 33.4297 -112.0244 268° West 140 161 1,100 -393 Descending Albuquerque Center
Sat 02:18:00 AM 33.4343 -112.0116 90° East  Level Estimated

Login

Don't have an account? Register now (free) for customized features, flight alerts, and more!